createdAt,value
2022-08-26T00:02:21.615Z,78.62
2022-08-26T00:05:05.076Z,78.84
2022-08-26T00:07:48.435Z,78.08
2022-08-26T00:10:32.270Z,76.94
2022-08-26T00:13:15.860Z,77.70
2022-08-26T00:16:05.456Z,77.25
2022-08-26T00:18:48.614Z,77.05
2022-08-26T00:21:32.455Z,76.74
2022-08-26T00:24:15.532Z,77.14
2022-08-26T00:26:58.635Z,76.98
2022-08-26T00:29:41.754Z,76.73
2022-08-26T00:32:26.238Z,76.36
2022-08-26T00:35:10.534Z,75.84
2022-08-26T00:37:54.165Z,75.56
2022-08-26T00:40:40.794Z,75.05
2022-08-26T00:43:25.197Z,75.03
2022-08-26T00:46:13.544Z,74.91
2022-08-26T00:49:04.333Z,74.81
2022-08-26T00:51:58.436Z,74.20
2022-08-26T00:54:47.025Z,74.75
2022-08-26T00:57:30.334Z,75.24
2022-08-26T01:00:18.052Z,75.47
2022-08-26T01:03:03.175Z,75.75
2022-08-26T01:05:51.173Z,75.65
2022-08-26T01:08:35.395Z,75.82
2022-08-26T01:11:18.540Z,76.52
2022-08-26T01:14:03.965Z,76.52
2022-08-26T01:16:47.244Z,76.48
2022-08-26T01:19:37.619Z,74.93
2022-08-26T01:22:28.784Z,76.11
2022-08-26T01:25:14.576Z,75.93
2022-08-26T01:28:00.098Z,76.44
2022-08-26T01:30:44.645Z,76.52
2022-08-26T01:33:39.956Z,76.33
2022-08-26T01:36:25.593Z,76.71
2022-08-26T01:39:09.576Z,75.74
2022-08-26T01:41:58.027Z,77.40
2022-08-26T01:44:50.298Z,75.37
2022-08-26T01:47:41.497Z,74.84
2022-08-26T01:50:30.184Z,74.58
2022-08-26T01:53:17.950Z,75.30
2022-08-26T01:56:03.830Z,75.47
2022-08-26T01:58:52.713Z,76.19
2022-08-26T02:01:36.409Z,75.50
2022-08-26T02:04:25.499Z,74.54
2022-08-26T02:07:10.833Z,75.45
2022-08-26T02:09:56.930Z,74.60
2022-08-26T02:12:40.864Z,74.47
2022-08-26T02:15:25.606Z,74.66
2022-08-26T02:18:14.108Z,75.84
2022-08-26T02:20:58.222Z,74.76
2022-08-26T02:23:41.753Z,74.24
2022-08-26T02:26:27.188Z,74.28
2022-08-26T02:29:17.686Z,74.72
2022-08-26T02:32:02.383Z,74.61
2022-08-26T02:34:47.101Z,73.82
2022-08-26T02:37:32.082Z,73.63
2022-08-26T02:40:19.402Z,73.21
2022-08-26T02:43:08.563Z,74.27
2022-08-26T02:45:52.313Z,74.96
2022-08-26T02:48:36.936Z,74.54
2022-08-26T02:51:20.042Z,74.59
2022-08-26T02:54:03.262Z,75.03
2022-08-26T02:56:47.496Z,72.68
2022-08-26T02:59:31.440Z,72.94
2022-08-26T03:02:14.595Z,72.94
2022-08-26T03:05:02.305Z,72.41
2022-08-26T03:07:45.572Z,72.35
2022-08-26T03:10:29.874Z,72.53
2022-08-26T03:13:13.076Z,71.54
2022-08-26T03:15:56.611Z,71.71
2022-08-26T03:18:39.773Z,71.78
2022-08-26T03:21:24.266Z,72.49
2022-08-26T03:24:07.749Z,73.15
2022-08-26T03:26:52.928Z,73.18
2022-08-26T03:29:53.734Z,72.14
2022-08-26T03:32:36.946Z,72.11
2022-08-26T03:35:21.854Z,73.21
2022-08-26T03:38:08.330Z,72.85
2022-08-26T03:40:52.462Z,73.52
2022-08-26T03:43:35.743Z,73.48
2022-08-26T03:46:21.682Z,73.55
2022-08-26T03:49:06.380Z,74.51
2022-08-26T03:51:49.543Z,73.25
2022-08-26T03:54:34.841Z,73.16
2022-08-26T03:57:18.454Z,72.61
2022-08-26T04:00:02.684Z,73.27
2022-08-26T04:02:46.958Z,74.15
2022-08-26T04:05:30.097Z,72.86
2022-08-26T04:08:13.164Z,71.96
2022-08-26T04:10:57.984Z,71.69
2022-08-26T04:13:41.754Z,71.63
2022-08-26T04:16:25.185Z,71.53
2022-08-26T04:19:12.153Z,71.89
2022-08-26T04:21:56.076Z,72.68
2022-08-26T04:24:40.346Z,72.50
2022-08-26T04:27:24.834Z,72.01
2022-08-26T04:30:10.256Z,73.21
2022-08-26T04:32:53.322Z,72.69
2022-08-26T04:35:37.175Z,71.13
2022-08-26T04:38:20.990Z,70.89
2022-08-26T04:41:05.656Z,70.29
2022-08-26T04:44:01.926Z,69.47
2022-08-26T04:46:45.344Z,68.35
2022-08-26T04:49:28.804Z,67.73
2022-08-26T04:52:18.877Z,66.93
2022-08-26T04:55:02.018Z,66.92
2022-08-26T04:57:45.972Z,66.57
2022-08-26T05:00:30.411Z,67.04
2022-08-26T05:03:14.114Z,66.57
2022-08-26T05:05:57.278Z,66.40
2022-08-26T05:08:41.121Z,67.78
2022-08-26T05:11:24.575Z,67.81
2022-08-26T05:14:08.041Z,65.87
2022-08-26T05:16:54.073Z,66.00
2022-08-26T05:19:37.484Z,64.95
2022-08-26T05:22:26.427Z,64.86
2022-08-26T05:25:09.728Z,64.39
2022-08-26T05:27:52.795Z,63.47
2022-08-26T05:30:36.039Z,63.11
2022-08-26T05:33:21.453Z,62.91
2022-08-26T05:36:09.358Z,63.19
2022-08-26T05:38:52.789Z,61.79
2022-08-26T05:41:38.421Z,61.39
2022-08-26T05:44:22.384Z,61.25
2022-08-26T05:47:05.631Z,61.62
2022-08-26T05:49:51.622Z,61.60
2022-08-26T05:52:35.233Z,61.97
2022-08-26T05:55:18.528Z,62.02
2022-08-26T05:58:02.802Z,62.71
2022-08-26T06:00:46.345Z,62.68
2022-08-26T06:03:29.900Z,63.45
2022-08-26T06:06:20.100Z,63.16
2022-08-26T06:09:09.468Z,62.60
2022-08-26T06:11:58.938Z,62.41
2022-08-26T06:14:42.009Z,61.90
2022-08-26T06:17:26.105Z,61.32
2022-08-26T06:20:10.332Z,60.59
2022-08-26T06:23:12.386Z,61.18
2022-08-26T06:25:55.536Z,61.90
2022-08-26T06:28:40.363Z,62.14
2022-08-26T06:31:27.806Z,61.76
2022-08-26T06:34:12.687Z,61.88
2022-08-26T06:36:57.181Z,62.19
2022-08-26T06:39:41.696Z,63.12
2022-08-26T06:42:24.813Z,62.71
2022-08-26T06:45:08.868Z,63.15
2022-08-26T06:47:52.502Z,62.52
2022-08-26T06:50:36.319Z,61.26
2022-08-26T06:53:19.399Z,60.47
2022-08-26T06:56:05.845Z,59.94
2022-08-26T06:58:49.355Z,59.95
2022-08-26T07:01:35.985Z,60.32
2022-08-26T07:04:21.996Z,59.38
2022-08-26T07:07:05.607Z,58.09
2022-08-26T07:09:52.869Z,56.96
2022-08-26T07:12:38.990Z,57.49
2022-08-26T07:15:23.909Z,56.67
2022-08-26T07:18:14.409Z,56.00
2022-08-26T07:20:57.519Z,54.84
2022-08-26T07:23:41.273Z,53.33
2022-08-26T07:26:29.140Z,49.60
2022-08-26T07:29:15.040Z,44.20
2022-08-26T07:31:58.263Z,41.31
2022-08-26T07:34:43.608Z,41.14
2022-08-26T07:37:26.743Z,35.80
2022-08-26T07:40:23.295Z,34.27
2022-08-26T07:43:06.627Z,34.45
2022-08-26T07:45:51.536Z,36.44
2022-08-26T07:48:35.559Z,37.39
2022-08-26T07:51:21.234Z,34.53
2022-08-26T07:54:05.609Z,31.52
2022-08-26T07:56:49.917Z,25.89
2022-08-26T07:59:35.051Z,20.52
2022-08-26T08:02:19.541Z,20.60
2022-08-26T08:05:02.652Z,18.71
2022-08-26T08:07:45.915Z,19.46
2022-08-26T08:10:36.529Z,26.14
2022-08-26T08:13:19.851Z,27.25
2022-08-26T08:16:03.741Z,25.55
2022-08-26T08:18:48.605Z,25.67
2022-08-26T08:21:33.508Z,24.45
2022-08-26T08:24:16.769Z,23.75
2022-08-26T08:26:59.913Z,25.11
2022-08-26T08:29:42.981Z,23.06
2022-08-26T08:32:26.123Z,24.71
2022-08-26T08:35:12.643Z,20.69
2022-08-26T08:37:58.192Z,19.72
2022-08-26T08:40:46.972Z,18.68
2022-08-26T08:43:41.018Z,16.14
2022-08-26T08:46:24.583Z,16.94
2022-08-26T08:49:11.042Z,15.57
2022-08-26T08:52:01.687Z,16.08
2022-08-26T08:54:44.862Z,15.44
2022-08-26T08:57:39.213Z,16.65
2022-08-26T09:00:30.417Z,16.66
2022-08-26T09:03:33.745Z,18.80
2022-08-26T09:06:20.575Z,18.34
2022-08-26T09:09:08.140Z,18.50
2022-08-26T09:11:51.717Z,17.25
2022-08-26T09:14:34.927Z,15.25
2022-08-26T09:17:31.417Z,13.57
2022-08-26T09:20:22.117Z,13.30
2022-08-26T09:23:05.427Z,13.63
2022-08-26T09:25:55.615Z,12.53
2022-08-26T09:28:43.656Z,13.83
2022-08-26T09:31:29.068Z,11.16
2022-08-26T09:34:17.801Z,12.31
2022-08-26T09:37:04.670Z,12.96
2022-08-26T09:39:48.046Z,12.40
2022-08-26T09:42:32.847Z,11.37
2022-08-26T09:45:17.119Z,14.11
2022-08-26T09:48:01.351Z,11.60
2022-08-26T09:50:55.255Z,13.23
2022-08-26T09:53:53.519Z,13.45
2022-08-26T09:56:38.687Z,12.58
2022-08-26T09:59:32.022Z,13.31
2022-08-26T10:02:33.829Z,12.92
2022-08-26T10:05:20.128Z,13.25
2022-08-26T10:08:18.703Z,12.73
2022-08-26T10:11:05.261Z,11.16
2022-08-26T10:13:56.419Z,11.43
2022-08-26T10:16:48.520Z,11.25
2022-08-26T10:19:41.654Z,13.75
2022-08-26T10:22:46.481Z,15.46
2022-08-26T10:25:36.046Z,14.02
2022-08-26T10:28:28.262Z,11.54
2022-08-26T10:31:27.530Z,10.86
2022-08-26T10:34:14.221Z,11.14
2022-08-26T10:37:14.383Z,11.34
2022-08-26T10:40:03.831Z,14.03
2022-08-26T10:42:54.449Z,14.94
2022-08-26T10:45:43.906Z,16.93
2022-08-26T10:48:35.384Z,14.46
2022-08-26T10:51:26.691Z,13.34
2022-08-26T10:54:14.609Z,11.28
2022-08-26T10:57:03.584Z,12.13
2022-08-26T11:00:00.176Z,12.77
2022-08-26T11:02:48.341Z,12.19
2022-08-26T11:05:31.611Z,12.17
2022-08-26T11:08:31.742Z,11.79
2022-08-26T11:11:47.387Z,11.82
2022-08-26T11:14:58.492Z,11.73
2022-08-26T11:17:58.491Z,15.69
2022-08-26T11:20:45.981Z,16.51
2022-08-26T11:23:50.465Z,18.47
2022-08-26T11:26:56.072Z,19.29
2022-08-26T11:30:02.251Z,21.91
2022-08-26T11:32:53.637Z,23.74
2022-08-26T11:35:51.131Z,24.89
2022-08-26T11:38:35.723Z,26.04
2022-08-26T11:41:29.158Z,24.79
2022-08-26T11:44:13.391Z,26.21
2022-08-26T11:46:59.811Z,25.10
2022-08-26T11:49:43.076Z,25.03
2022-08-26T11:52:26.547Z,25.33
2022-08-26T11:55:11.617Z,26.98
2022-08-26T11:58:00.897Z,27.53
2022-08-26T12:00:53.108Z,26.43
2022-08-26T12:03:43.252Z,26.49
2022-08-26T12:06:29.431Z,26.18
2022-08-26T12:09:16.009Z,26.99
2022-08-26T12:12:14.465Z,27.46
2022-08-26T12:15:16.221Z,27.49
2022-08-26T12:18:20.539Z,27.66
2022-08-26T12:21:16.149Z,26.76
2022-08-26T12:24:01.605Z,27.10
2022-08-26T12:26:44.872Z,27.69
2022-08-26T12:29:29.404Z,29.25
2022-08-26T12:32:17.637Z,29.39
2022-08-26T12:35:09.679Z,29.68
2022-08-26T12:37:55.893Z,28.97
2022-08-26T12:40:43.905Z,27.82
2022-08-26T12:43:42.401Z,29.33
2022-08-26T12:46:28.602Z,28.35
2022-08-26T12:49:13.350Z,28.12
2022-08-26T12:51:56.714Z,27.81
2022-08-26T12:54:57.584Z,27.56
2022-08-26T12:57:40.722Z,27.55
2022-08-26T13:00:28.292Z,28.38
2022-08-26T13:03:38.506Z,26.70
2022-08-26T13:06:30.079Z,27.24
2022-08-26T13:09:33.681Z,27.91
2022-08-26T13:12:29.141Z,28.15
2022-08-26T13:15:12.340Z,27.36
2022-08-26T13:17:55.478Z,27.31
2022-08-26T13:20:44.927Z,26.36
2022-08-26T13:23:30.236Z,25.73
2022-08-26T13:26:13.390Z,26.09
2022-08-26T13:29:01.618Z,26.46
2022-08-26T13:31:46.918Z,26.22
2022-08-26T13:34:32.472Z,27.00
2022-08-26T13:37:15.798Z,27.54
2022-08-26T13:40:00.449Z,27.58
2022-08-26T13:42:49.776Z,28.28
2022-08-26T13:45:33.284Z,29.16
2022-08-26T13:48:21.569Z,28.94
2022-08-26T13:51:08.990Z,29.06
2022-08-26T13:53:52.782Z,29.03
2022-08-26T13:56:41.546Z,28.54
2022-08-26T13:59:24.659Z,28.62
2022-08-26T14:02:08.601Z,28.54
2022-08-26T14:04:53.974Z,28.89
2022-08-26T14:07:37.352Z,28.43
2022-08-26T14:10:23.518Z,29.39
2022-08-26T14:13:08.213Z,28.88
2022-08-26T14:15:51.870Z,30.18
2022-08-26T14:18:41.640Z,29.16
2022-08-26T14:21:26.753Z,29.49
2022-08-26T14:24:09.943Z,29.61
2022-08-26T14:26:53.786Z,29.84
2022-08-26T14:29:38.410Z,30.11
2022-08-26T14:32:25.716Z,30.09
2022-08-26T14:35:11.035Z,29.62
2022-08-26T14:37:54.456Z,28.89
2022-08-26T14:40:40.274Z,30.00
2022-08-26T14:43:23.445Z,30.36
2022-08-26T14:46:08.220Z,31.25
2022-08-26T14:48:51.454Z,30.12
2022-08-26T14:51:37.130Z,30.57
2022-08-26T14:54:21.431Z,30.68
2022-08-26T14:57:08.016Z,31.05
2022-08-26T14:59:51.481Z,31.56
2022-08-26T15:02:37.771Z,32.00
2022-08-26T15:05:21.368Z,31.77
2022-08-26T15:08:10.675Z,30.67
2022-08-26T15:10:54.406Z,30.96
2022-08-26T15:13:38.042Z,31.45
2022-08-26T15:16:21.949Z,31.39
2022-08-26T15:19:07.100Z,30.84
2022-08-26T15:21:51.035Z,31.21
2022-08-26T15:24:37.101Z,31.81
2022-08-26T15:27:20.378Z,30.74
2022-08-26T15:30:04.025Z,31.88
2022-08-26T15:32:47.272Z,31.94
2022-08-26T15:35:32.994Z,32.44
2022-08-26T15:38:21.608Z,32.31
2022-08-26T15:41:06.522Z,32.83
2022-08-26T15:43:49.846Z,33.12
2022-08-26T15:46:33.657Z,33.09
2022-08-26T15:49:19.503Z,34.13
2022-08-26T15:52:05.495Z,33.20
2022-08-26T15:54:48.774Z,33.92
2022-08-26T15:57:33.747Z,33.96
2022-08-26T16:00:18.296Z,34.74
2022-08-26T16:03:01.519Z,35.28
2022-08-26T16:05:45.284Z,34.55
2022-08-26T16:08:30.146Z,34.48
2022-08-26T16:11:20.086Z,34.56
2022-08-26T16:14:04.632Z,35.82
2022-08-26T16:16:48.250Z,34.82
2022-08-26T16:19:31.487Z,36.46
2022-08-26T16:22:14.628Z,35.19
2022-08-26T16:25:00.073Z,36.33
2022-08-26T16:27:43.200Z,36.38
2022-08-26T16:30:28.286Z,37.37
2022-08-26T16:33:11.729Z,37.08
2022-08-26T16:35:57.551Z,37.24
2022-08-26T16:38:53.463Z,36.57
2022-08-26T16:41:38.177Z,38.35
2022-08-26T16:44:22.280Z,37.27
2022-08-26T16:47:05.651Z,37.83
2022-08-26T16:49:48.824Z,38.66
2022-08-26T16:52:32.004Z,38.70
2022-08-26T16:55:17.812Z,39.89
2022-08-26T16:58:02.940Z,39.59
2022-08-26T17:00:46.422Z,40.24
2022-08-26T17:03:29.588Z,40.05
2022-08-26T17:06:13.270Z,42.37
2022-08-26T17:08:56.610Z,40.28
2022-08-26T17:11:40.189Z,43.18
2022-08-26T17:14:25.054Z,43.44
2022-08-26T17:17:09.018Z,42.17
2022-08-26T17:19:52.447Z,42.90
2022-08-26T17:22:35.774Z,42.24
2022-08-26T17:25:21.364Z,42.11
2022-08-26T17:28:05.542Z,43.94
2022-08-26T17:30:58.645Z,45.02
2022-08-26T17:33:42.162Z,44.60
2022-08-26T17:36:27.813Z,43.84
2022-08-26T17:39:11.945Z,43.85
2022-08-26T17:41:55.105Z,44.46
2022-08-26T17:44:38.398Z,45.07
2022-08-26T17:47:23.013Z,45.52
2022-08-26T17:50:09.254Z,45.88
2022-08-26T17:52:52.804Z,46.32
2022-08-26T17:55:36.026Z,46.78
2022-08-26T17:58:23.254Z,47.36
2022-08-26T18:01:07.880Z,47.31
2022-08-26T18:03:54.699Z,47.61
2022-08-26T18:06:41.026Z,47.66
2022-08-26T18:09:24.143Z,48.50
2022-08-26T18:12:07.948Z,49.08
2022-08-26T18:14:51.061Z,49.47
2022-08-26T18:17:34.607Z,49.96
2022-08-26T18:20:20.432Z,50.08
2022-08-26T18:23:03.609Z,50.20
2022-08-26T18:25:46.825Z,50.57
2022-08-26T18:28:29.993Z,50.71
2022-08-26T18:31:16.108Z,50.93
2022-08-26T18:34:00.922Z,51.43
2022-08-26T18:36:45.593Z,51.73
2022-08-26T18:39:28.880Z,51.89
2022-08-26T18:42:12.457Z,52.30
2022-08-26T18:44:55.659Z,52.57
2022-08-26T18:47:39.320Z,52.80
2022-08-26T18:50:22.684Z,52.63
2022-08-26T18:53:07.395Z,52.88
2022-08-26T18:55:50.565Z,53.10
2022-08-26T18:58:33.808Z,53.23
2022-08-26T19:01:18.311Z,53.74
2022-08-26T19:04:03.635Z,53.49
2022-08-26T19:06:48.443Z,53.66
2022-08-26T19:09:33.377Z,53.45
2022-08-26T19:12:16.902Z,53.56
2022-08-26T19:15:01.664Z,53.64
2022-08-26T19:17:44.767Z,53.78
2022-08-26T19:20:28.037Z,53.84
2022-08-26T19:23:30.492Z,53.87
2022-08-26T19:26:16.361Z,54.30
2022-08-26T19:29:00.384Z,54.20
2022-08-26T19:31:43.928Z,53.32
2022-08-26T19:34:28.008Z,53.71
2022-08-26T19:37:11.427Z,53.42
2022-08-26T19:39:54.816Z,52.97
2022-08-26T19:42:39.431Z,53.48
2022-08-26T19:45:25.221Z,53.99
2022-08-26T19:48:08.772Z,53.90
2022-08-26T19:50:52.201Z,54.40
2022-08-26T19:53:35.292Z,54.01
2022-08-26T19:56:18.679Z,54.46
2022-08-26T19:59:04.025Z,54.39
2022-08-26T20:01:47.279Z,54.26
2022-08-26T20:04:45.507Z,54.16
2022-08-26T20:07:28.791Z,54.06
2022-08-26T20:10:18.568Z,54.76
2022-08-26T20:13:01.694Z,54.64
2022-08-26T20:15:46.292Z,54.85
2022-08-26T20:18:46.852Z,54.82
2022-08-26T20:21:34.303Z,55.47
2022-08-26T20:24:19.655Z,55.20
2022-08-26T20:27:07.501Z,55.40
2022-08-26T20:29:51.184Z,54.99
2022-08-26T20:32:36.470Z,55.34
2022-08-26T20:35:20.336Z,55.19
2022-08-26T20:38:03.598Z,55.44
2022-08-26T20:40:46.904Z,55.62
2022-08-26T20:43:30.877Z,55.65
2022-08-26T20:46:18.035Z,55.74
2022-08-26T20:49:05.936Z,56.06
2022-08-26T20:51:52.060Z,55.46
2022-08-26T20:54:35.205Z,56.16
2022-08-26T20:57:19.139Z,56.04
2022-08-26T21:00:02.324Z,56.02
2022-08-26T21:02:46.362Z,55.65
2022-08-26T21:05:31.322Z,56.25
2022-08-26T21:08:16.906Z,56.52
2022-08-26T21:11:00.177Z,57.01
2022-08-26T21:14:03.938Z,56.89
2022-08-26T21:16:48.091Z,57.09
2022-08-26T21:19:31.428Z,56.95
2022-08-26T21:22:16.037Z,57.25
2022-08-26T21:24:59.235Z,57.54
2022-08-26T21:27:42.363Z,57.66
2022-08-26T21:30:25.457Z,57.57
2022-08-26T21:33:08.619Z,57.49
2022-08-26T21:35:55.462Z,57.64
2022-08-26T21:38:41.114Z,58.06
2022-08-26T21:41:24.315Z,58.04
2022-08-26T21:44:07.675Z,58.89
2022-08-26T21:46:50.831Z,58.76
2022-08-26T21:49:33.988Z,59.73
2022-08-26T21:52:17.394Z,59.09
2022-08-26T21:55:03.371Z,60.21
2022-08-26T21:57:51.953Z,60.21
2022-08-26T22:00:35.148Z,61.20
2022-08-26T22:03:18.946Z,60.57
2022-08-26T22:06:02.306Z,60.31
2022-08-26T22:08:49.192Z,59.81
2022-08-26T22:11:33.807Z,60.51
2022-08-26T22:14:18.141Z,61.10
2022-08-26T22:17:02.638Z,62.56
2022-08-26T22:19:46.721Z,62.51
2022-08-26T22:22:29.963Z,62.72
2022-08-26T22:25:13.572Z,63.47
2022-08-26T22:27:58.161Z,62.39
2022-08-26T22:30:43.027Z,61.55
2022-08-26T22:33:26.848Z,61.66
2022-08-26T22:36:16.975Z,61.13
2022-08-26T22:39:00.741Z,61.22
2022-08-26T22:41:45.090Z,61.00
2022-08-26T22:44:29.631Z,61.52
2022-08-26T22:47:12.811Z,61.70
2022-08-26T22:49:56.003Z,62.03
2022-08-26T22:52:39.247Z,61.90
2022-08-26T22:55:22.446Z,62.22
2022-08-26T22:58:06.387Z,62.19
2022-08-26T23:00:51.154Z,62.35
2022-08-26T23:03:37.550Z,62.63
2022-08-26T23:06:20.685Z,62.59
2022-08-26T23:09:03.851Z,63.01
2022-08-26T23:11:48.538Z,63.28
2022-08-26T23:14:33.374Z,63.12
2022-08-26T23:17:18.209Z,63.63
2022-08-26T23:20:01.676Z,63.46
2022-08-26T23:22:46.199Z,63.25
2022-08-26T23:25:32.431Z,63.80
2022-08-26T23:28:15.592Z,63.96
2022-08-26T23:30:59.309Z,64.48
2022-08-26T23:34:01.524Z,64.41
2022-08-26T23:36:46.277Z,64.66
2022-08-26T23:39:30.306Z,64.64
2022-08-26T23:42:13.817Z,65.21
2022-08-26T23:44:57.008Z,65.06
2022-08-26T23:47:41.239Z,65.50
2022-08-26T23:50:50.162Z,65.51
2022-08-26T23:53:32.249Z,65.52
2022-08-26T23:56:16.821Z,65.32
2022-08-26T23:59:00.789Z,65.67
